sensor_id;sensor_type;location;lat;lon;timestamp;temperature;humidity
15916;DHT22;8057;47.830;-3.870;2024-01-27T00:01:46;4.50;99.90
15916;DHT22;8057;47.830;-3.870;2024-01-27T00:05:57;4.60;99.90
15916;DHT22;8057;47.830;-3.870;2024-01-27T00:10:07;4.50;99.90
15916;DHT22;8057;47.830;-3.870;2024-01-27T00:14:16;4.40;99.90
15916;DHT22;8057;47.830;-3.870;2024-01-27T00:18:25;4.40;99.90
15916;DHT22;8057;47.830;-3.870;2024-01-27T00:22:35;4.40;99.90
15916;DHT22;8057;47.830;-3.870;2024-01-27T00:26:44;4.50;99.90
15916;DHT22;8057;47.830;-3.870;2024-01-27T00:30:53;4.50;99.90
15916;DHT22;8057;47.830;-3.870;2024-01-27T00:35:02;4.40;99.90
15916;DHT22;8057;47.830;-3.870;2024-01-27T00:39:13;4.30;99.90
15916;DHT22;8057;47.830;-3.870;2024-01-27T00:43:21;4.40;99.90
15916;DHT22;8057;47.830;-3.870;2024-01-27T00:47:30;4.50;99.90
15916;DHT22;8057;47.830;-3.870;2024-01-27T00:51:40;4.50;99.90
15916;DHT22;8057;47.830;-3.870;2024-01-27T00:55:50;4.40;99.90
15916;DHT22;8057;47.830;-3.870;2024-01-27T00:59:59;4.30;99.90
15916;DHT22;8057;47.830;-3.870;2024-01-27T01:04:08;4.40;99.90
15916;DHT22;8057;47.830;-3.870;2024-01-27T01:08:17;4.40;99.90
15916;DHT22;8057;47.830;-3.870;2024-01-27T01:12:27;4.40;99.90
15916;DHT22;8057;47.830;-3.870;2024-01-27T01:16:36;4.40;99.90
15916;DHT22;8057;47.830;-3.870;2024-01-27T01:20:45;4.30;99.90
15916;DHT22;8057;47.830;-3.870;2024-01-27T01:24:54;4.30;99.90
15916;DHT22;8057;47.830;-3.870;2024-01-27T01:29:04;4.30;99.90
15916;DHT22;8057;47.830;-3.870;2024-01-27T01:33:13;4.40;99.90
15916;DHT22;8057;47.830;-3.870;2024-01-27T01:37:22;4.40;99.90
15916;DHT22;8057;47.830;-3.870;2024-01-27T01:41:31;4.40;99.90
15916;DHT22;8057;47.830;-3.870;2024-01-27T01:45:44;4.30;99.90
15916;DHT22;8057;47.830;-3.870;2024-01-27T01:49:53;4.30;99.90
15916;DHT22;8057;47.830;-3.870;2024-01-27T01:54:03;4.30;99.90
15916;DHT22;8057;47.830;-3.870;2024-01-27T01:58:12;4.30;99.90
15916;DHT22;8057;47.830;-3.870;2024-01-27T02:02:22;4.20;99.90
15916;DHT22;8057;47.830;-3.870;2024-01-27T02:06:31;4.10;99.90
15916;DHT22;8057;47.830;-3.870;2024-01-27T02:10:40;4.10;99.90
15916;DHT22;8057;47.830;-3.870;2024-01-27T02:14:49;4.10;99.90
15916;DHT22;8057;47.830;-3.870;2024-01-27T02:19:00;4.10;99.90
15916;DHT22;8057;47.830;-3.870;2024-01-27T02:23:09;4.10;99.90
15916;DHT22;8057;47.830;-3.870;2024-01-27T02:27:19;4.00;99.90
15916;DHT22;8057;47.830;-3.870;2024-01-27T02:31:28;4.00;99.90
15916;DHT22;8057;47.830;-3.870;2024-01-27T02:35:37;4.10;99.90
15916;DHT22;8057;47.830;-3.870;2024-01-27T02:39:46;4.20;99.90
15916;DHT22;8057;47.830;-3.870;2024-01-27T02:43:56;4.30;99.90
15916;DHT22;8057;47.830;-3.870;2024-01-27T02:48:05;4.30;99.90
15916;DHT22;8057;47.830;-3.870;2024-01-27T02:52:14;4.20;99.90
15916;DHT22;8057;47.830;-3.870;2024-01-27T02:56:23;4.20;99.90
15916;DHT22;8057;47.830;-3.870;2024-01-27T03:00:33;4.30;99.90
15916;DHT22;8057;47.830;-3.870;2024-01-27T03:04:42;4.30;99.90
15916;DHT22;8057;47.830;-3.870;2024-01-27T03:08:51;4.30;99.90
15916;DHT22;8057;47.830;-3.870;2024-01-27T03:13:00;4.10;99.90
15916;DHT22;8057;47.830;-3.870;2024-01-27T03:17:10;4.00;99.90
15916;DHT22;8057;47.830;-3.870;2024-01-27T03:21:19;4.10;99.90
15916;DHT22;8057;47.830;-3.870;2024-01-27T03:25:29;4.20;99.90
15916;DHT22;8057;47.830;-3.870;2024-01-27T03:29:38;4.30;99.90
15916;DHT22;8057;47.830;-3.870;2024-01-27T03:33:48;4.10;99.90
15916;DHT22;8057;47.830;-3.870;2024-01-27T03:37:57;4.00;99.90
15916;DHT22;8057;47.830;-3.870;2024-01-27T03:42:10;4.10;99.90
15916;DHT22;8057;47.830;-3.870;2024-01-27T03:46:19;4.20;99.90
15916;DHT22;8057;47.830;-3.870;2024-01-27T03:50:30;4.30;99.90
15916;DHT22;8057;47.830;-3.870;2024-01-27T03:54:38;4.20;99.90
15916;DHT22;8057;47.830;-3.870;2024-01-27T03:58:47;4.00;99.90
15916;DHT22;8057;47.830;-3.870;2024-01-27T04:02:56;4.10;99.90
15916;DHT22;8057;47.830;-3.870;2024-01-27T04:07:06;4.10;99.90
15916;DHT22;8057;47.830;-3.870;2024-01-27T04:11:19;4.10;99.90
15916;DHT22;8057;47.830;-3.870;2024-01-27T04:15:29;4.10;99.90
15916;DHT22;8057;47.830;-3.870;2024-01-27T04:19:38;3.90;99.90
15916;DHT22;8057;47.830;-3.870;2024-01-27T04:23:48;3.90;99.90
15916;DHT22;8057;47.830;-3.870;2024-01-27T04:27:57;4.00;99.90
15916;DHT22;8057;47.830;-3.870;2024-01-27T04:32:06;4.00;99.90
15916;DHT22;8057;47.830;-3.870;2024-01-27T04:36:25;4.10;99.90
15916;DHT22;8057;47.830;-3.870;2024-01-27T04:40:35;4.00;99.90
15916;DHT22;8057;47.830;-3.870;2024-01-27T04:44:45;3.90;99.90
15916;DHT22;8057;47.830;-3.870;2024-01-27T04:48:55;4.00;99.90
15916;DHT22;8057;47.830;-3.870;2024-01-27T04:53:04;4.00;99.90
15916;DHT22;8057;47.830;-3.870;2024-01-27T04:57:14;4.00;99.90
15916;DHT22;8057;47.830;-3.870;2024-01-27T05:01:23;4.00;99.90
15916;DHT22;8057;47.830;-3.870;2024-01-27T05:05:51;3.90;99.90
15916;DHT22;8057;47.830;-3.870;2024-01-27T05:10:00;3.90;99.90
15916;DHT22;8057;47.830;-3.870;2024-01-27T05:14:11;4.00;99.90
15916;DHT22;8057;47.830;-3.870;2024-01-27T05:18:20;4.00;99.90
15916;DHT22;8057;47.830;-3.870;2024-01-27T05:22:29;4.00;99.90
15916;DHT22;8057;47.830;-3.870;2024-01-27T05:26:37;4.00;99.90
15916;DHT22;8057;47.830;-3.870;2024-01-27T05:30:48;4.00;99.90
15916;DHT22;8057;47.830;-3.870;2024-01-27T05:34:57;4.20;99.90
15916;DHT22;8057;47.830;-3.870;2024-01-27T05:39:05;4.20;99.90
15916;DHT22;8057;47.830;-3.870;2024-01-27T05:43:15;4.20;99.90
15916;DHT22;8057;47.830;-3.870;2024-01-27T05:47:25;4.20;99.90
15916;DHT22;8057;47.830;-3.870;2024-01-27T05:51:34;4.10;99.90
15916;DHT22;8057;47.830;-3.870;2024-01-27T05:55:43;4.10;99.90
15916;DHT22;8057;47.830;-3.870;2024-01-27T05:59:53;4.10;99.90
15916;DHT22;8057;47.830;-3.870;2024-01-27T06:04:03;4.00;99.90
15916;DHT22;8057;47.830;-3.870;2024-01-27T06:08:12;4.00;99.90
15916;DHT22;8057;47.830;-3.870;2024-01-27T06:12:21;4.00;99.90
15916;DHT22;8057;47.830;-3.870;2024-01-27T06:16:30;4.00;99.90
15916;DHT22;8057;47.830;-3.870;2024-01-27T06:20:41;4.10;99.90
15916;DHT22;8057;47.830;-3.870;2024-01-27T06:24:49;4.00;99.90
15916;DHT22;8057;47.830;-3.870;2024-01-27T06:28:58;4.00;99.90
15916;DHT22;8057;47.830;-3.870;2024-01-27T06:33:07;4.00;99.90
15916;DHT22;8057;47.830;-3.870;2024-01-27T06:37:18;4.10;99.90
15916;DHT22;8057;47.830;-3.870;2024-01-27T06:41:29;4.10;99.90
15916;DHT22;8057;47.830;-3.870;2024-01-27T06:45:38;4.10;99.90
15916;DHT22;8057;47.830;-3.870;2024-01-27T06:49:47;4.20;99.90
15916;DHT22;8057;47.830;-3.870;2024-01-27T06:53:58;4.10;99.90
15916;DHT22;8057;47.830;-3.870;2024-01-27T06:58:07;4.10;99.90
15916;DHT22;8057;47.830;-3.870;2024-01-27T07:02:16;4.10;99.90
15916;DHT22;8057;47.830;-3.870;2024-01-27T07:06:25;4.10;99.90
15916;DHT22;8057;47.830;-3.870;2024-01-27T07:10:36;4.10;99.90
15916;DHT22;8057;47.830;-3.870;2024-01-27T07:14:45;4.00;99.90
15916;DHT22;8057;47.830;-3.870;2024-01-27T07:18:54;4.00;99.90
15916;DHT22;8057;47.830;-3.870;2024-01-27T07:23:04;4.00;99.90
15916;DHT22;8057;47.830;-3.870;2024-01-27T07:27:16;4.00;99.90
15916;DHT22;8057;47.830;-3.870;2024-01-27T07:31:25;4.00;99.90
15916;DHT22;8057;47.830;-3.870;2024-01-27T07:35:35;4.00;99.90
15916;DHT22;8057;47.830;-3.870;2024-01-27T07:39:44;3.90;99.90
15916;DHT22;8057;47.830;-3.870;2024-01-27T07:43:55;4.00;99.90
15916;DHT22;8057;47.830;-3.870;2024-01-27T07:48:05;4.00;99.90
15916;DHT22;8057;47.830;-3.870;2024-01-27T07:52:15;4.10;99.90
15916;DHT22;8057;47.830;-3.870;2024-01-27T07:56:24;4.20;99.90
15916;DHT22;8057;47.830;-3.870;2024-01-27T08:00:34;4.20;99.90
15916;DHT22;8057;47.830;-3.870;2024-01-27T08:04:44;4.10;99.90
15916;DHT22;8057;47.830;-3.870;2024-01-27T08:08:53;4.20;99.90
15916;DHT22;8057;47.830;-3.870;2024-01-27T08:13:02;4.30;99.90
15916;DHT22;8057;47.830;-3.870;2024-01-27T08:17:14;4.40;99.90
15916;DHT22;8057;47.830;-3.870;2024-01-27T08:21:23;4.50;99.90
15916;DHT22;8057;47.830;-3.870;2024-01-27T08:25:32;4.60;99.90
15916;DHT22;8057;47.830;-3.870;2024-01-27T08:29:41;4.80;99.90
15916;DHT22;8057;47.830;-3.870;2024-01-27T08:33:52;4.90;99.90
15916;DHT22;8057;47.830;-3.870;2024-01-27T08:38:01;5.10;99.90
15916;DHT22;8057;47.830;-3.870;2024-01-27T08:42:13;5.10;99.90
15916;DHT22;8057;47.830;-3.870;2024-01-27T08:46:22;5.20;99.90
15916;DHT22;8057;47.830;-3.870;2024-01-27T08:50:33;5.40;99.90
15916;DHT22;8057;47.830;-3.870;2024-01-27T08:54:42;5.50;99.90
15916;DHT22;8057;47.830;-3.870;2024-01-27T08:58:51;5.60;99.90
15916;DHT22;8057;47.830;-3.870;2024-01-27T09:03:00;5.70;99.90
15916;DHT22;8057;47.830;-3.870;2024-01-27T09:07:12;5.70;99.90
15916;DHT22;8057;47.830;-3.870;2024-01-27T09:11:21;5.80;99.90
15916;DHT22;8057;47.830;-3.870;2024-01-27T09:15:31;6.00;99.90
15916;DHT22;8057;47.830;-3.870;2024-01-27T09:19:40;6.10;99.90
15916;DHT22;8057;47.830;-3.870;2024-01-27T09:23:51;6.20;99.90
15916;DHT22;8057;47.830;-3.870;2024-01-27T09:28:00;6.30;99.90
15916;DHT22;8057;47.830;-3.870;2024-01-27T09:32:10;6.50;99.90
15916;DHT22;8057;47.830;-3.870;2024-01-27T09:36:19;6.60;99.90
15916;DHT22;8057;47.830;-3.870;2024-01-27T09:40:30;6.70;99.90
15916;DHT22;8057;47.830;-3.870;2024-01-27T09:44:49;6.90;99.90
15916;DHT22;8057;47.830;-3.870;2024-01-27T09:49:03;7.00;99.90
15916;DHT22;8057;47.830;-3.870;2024-01-27T09:53:13;7.10;99.90
15916;DHT22;8057;47.830;-3.870;2024-01-27T09:57:25;7.30;99.90
15916;DHT22;8057;47.830;-3.870;2024-01-27T10:01:35;7.40;99.90
15916;DHT22;8057;47.830;-3.870;2024-01-27T10:05:46;7.40;99.90
15916;DHT22;8057;47.830;-3.870;2024-01-27T10:09:56;7.60;99.90
15916;DHT22;8057;47.830;-3.870;2024-01-27T10:14:06;7.70;99.90
15916;DHT22;8057;47.830;-3.870;2024-01-27T10:18:16;7.80;99.90
15916;DHT22;8057;47.830;-3.870;2024-01-27T10:22:27;8.00;99.90
15916;DHT22;8057;47.830;-3.870;2024-01-27T10:26:36;8.20;99.90
15916;DHT22;8057;47.830;-3.870;2024-01-27T10:30:46;8.20;99.90
15916;DHT22;8057;47.830;-3.870;2024-01-27T10:35:04;8.20;99.90
15916;DHT22;8057;47.830;-3.870;2024-01-27T10:39:17;8.20;99.90
15916;DHT22;8057;47.830;-3.870;2024-01-27T10:43:26;8.30;99.90
15916;DHT22;8057;47.830;-3.870;2024-01-27T10:47:39;8.40;99.90
15916;DHT22;8057;47.830;-3.870;2024-01-27T10:51:53;8.40;99.90
15916;DHT22;8057;47.830;-3.870;2024-01-27T10:56:03;8.50;99.90
15916;DHT22;8057;47.830;-3.870;2024-01-27T11:00:17;8.50;99.90
15916;DHT22;8057;47.830;-3.870;2024-01-27T11:04:28;8.50;99.90
15916;DHT22;8057;47.830;-3.870;2024-01-27T11:08:40;8.50;99.90
15916;DHT22;8057;47.830;-3.870;2024-01-27T11:12:51;8.60;99.90
15916;DHT22;8057;47.830;-3.870;2024-01-27T11:17:02;8.70;99.90
15916;DHT22;8057;47.830;-3.870;2024-01-27T11:21:15;8.70;99.90
15916;DHT22;8057;47.830;-3.870;2024-01-27T11:25:24;8.80;99.90
15916;DHT22;8057;47.830;-3.870;2024-01-27T11:29:33;8.80;99.90
15916;DHT22;8057;47.830;-3.870;2024-01-27T11:33:44;8.90;99.90
15916;DHT22;8057;47.830;-3.870;2024-01-27T11:37:56;9.00;99.90
15916;DHT22;8057;47.830;-3.870;2024-01-27T11:42:05;9.00;99.90
15916;DHT22;8057;47.830;-3.870;2024-01-27T11:46:15;9.20;99.90
15916;DHT22;8057;47.830;-3.870;2024-01-27T11:50:24;9.30;99.90
15916;DHT22;8057;47.830;-3.870;2024-01-27T11:54:35;9.30;99.90
15916;DHT22;8057;47.830;-3.870;2024-01-27T11:58:49;9.40;99.90
15916;DHT22;8057;47.830;-3.870;2024-01-27T12:03:01;9.60;99.90
15916;DHT22;8057;47.830;-3.870;2024-01-27T12:07:10;9.70;99.90
15916;DHT22;8057;47.830;-3.870;2024-01-27T12:11:22;9.60;99.90
15916;DHT22;8057;47.830;-3.870;2024-01-27T12:15:31;9.80;99.90
15916;DHT22;8057;47.830;-3.870;2024-01-27T12:19:47;9.80;99.90
15916;DHT22;8057;47.830;-3.870;2024-01-27T12:23:57;9.90;99.90
15916;DHT22;8057;47.830;-3.870;2024-01-27T12:28:09;10.00;99.90
15916;DHT22;8057;47.830;-3.870;2024-01-27T12:32:18;10.10;99.90
15916;DHT22;8057;47.830;-3.870;2024-01-27T12:36:28;10.00;99.90
15916;DHT22;8057;47.830;-3.870;2024-01-27T12:40:38;10.00;99.90
15916;DHT22;8057;47.830;-3.870;2024-01-27T12:44:49;10.00;99.90
15916;DHT22;8057;47.830;-3.870;2024-01-27T12:48:58;10.00;99.90
15916;DHT22;8057;47.830;-3.870;2024-01-27T12:53:08;9.80;99.90
15916;DHT22;8057;47.830;-3.870;2024-01-27T12:57:17;9.90;99.90
15916;DHT22;8057;47.830;-3.870;2024-01-27T13:01:28;9.90;99.90
15916;DHT22;8057;47.830;-3.870;2024-01-27T13:05:38;9.90;99.90
15916;DHT22;8057;47.830;-3.870;2024-01-27T13:09:47;10.00;99.90
15916;DHT22;8057;47.830;-3.870;2024-01-27T13:13:56;10.00;99.90
15916;DHT22;8057;47.830;-3.870;2024-01-27T13:18:07;9.90;99.90
15916;DHT22;8057;47.830;-3.870;2024-01-27T13:22:18;9.80;99.90
15916;DHT22;8057;47.830;-3.870;2024-01-27T13:26:31;9.90;99.90
15916;DHT22;8057;47.830;-3.870;2024-01-27T13:30:45;10.10;99.90
15916;DHT22;8057;47.830;-3.870;2024-01-27T13:34:56;10.10;99.90
15916;DHT22;8057;47.830;-3.870;2024-01-27T13:39:05;10.20;99.90
15916;DHT22;8057;47.830;-3.870;2024-01-27T13:43:16;10.20;99.90
15916;DHT22;8057;47.830;-3.870;2024-01-27T13:47:25;10.30;99.90
15916;DHT22;8057;47.830;-3.870;2024-01-27T13:51:36;10.50;99.90
15916;DHT22;8057;47.830;-3.870;2024-01-27T13:55:46;10.60;99.90
15916;DHT22;8057;47.830;-3.870;2024-01-27T13:59:55;10.80;99.90
15916;DHT22;8057;47.830;-3.870;2024-01-27T14:04:05;10.80;99.90
15916;DHT22;8057;47.830;-3.870;2024-01-27T14:08:19;11.10;99.90
15916;DHT22;8057;47.830;-3.870;2024-01-27T14:12:28;10.90;99.90
15916;DHT22;8057;47.830;-3.870;2024-01-27T14:16:39;11.00;99.90
15916;DHT22;8057;47.830;-3.870;2024-01-27T14:20:48;11.00;99.90
15916;DHT22;8057;47.830;-3.870;2024-01-27T14:25:00;10.90;99.90
15916;DHT22;8057;47.830;-3.870;2024-01-27T14:29:09;10.90;99.90
15916;DHT22;8057;47.830;-3.870;2024-01-27T14:33:20;10.90;99.90
15916;DHT22;8057;47.830;-3.870;2024-01-27T14:37:31;10.90;99.90
15916;DHT22;8057;47.830;-3.870;2024-01-27T14:41:41;10.80;99.90
15916;DHT22;8057;47.830;-3.870;2024-01-27T14:45:51;10.80;99.90
15916;DHT22;8057;47.830;-3.870;2024-01-27T14:50:00;10.80;99.90
15916;DHT22;8057;47.830;-3.870;2024-01-27T14:54:10;10.80;99.90
15916;DHT22;8057;47.830;-3.870;2024-01-27T14:58:21;10.90;99.90
15916;DHT22;8057;47.830;-3.870;2024-01-27T15:02:30;11.00;99.90
15916;DHT22;8057;47.830;-3.870;2024-01-27T15:06:40;11.10;99.90
15916;DHT22;8057;47.830;-3.870;2024-01-27T15:10:49;11.20;99.90
15916;DHT22;8057;47.830;-3.870;2024-01-27T15:15:00;11.10;99.90
15916;DHT22;8057;47.830;-3.870;2024-01-27T15:19:10;11.00;99.90
15916;DHT22;8057;47.830;-3.870;2024-01-27T15:23:19;11.00;99.90
15916;DHT22;8057;47.830;-3.870;2024-01-27T15:27:33;10.90;99.90
15916;DHT22;8057;47.830;-3.870;2024-01-27T15:31:44;10.90;99.90
15916;DHT22;8057;47.830;-3.870;2024-01-27T15:35:54;10.90;99.90
15916;DHT22;8057;47.830;-3.870;2024-01-27T15:40:04;10.90;99.90
15916;DHT22;8057;47.830;-3.870;2024-01-27T15:44:13;10.90;99.90
15916;DHT22;8057;47.830;-3.870;2024-01-27T15:48:24;10.80;99.90
15916;DHT22;8057;47.830;-3.870;2024-01-27T15:52:34;10.80;99.90
15916;DHT22;8057;47.830;-3.870;2024-01-27T15:56:44;10.80;99.90
15916;DHT22;8057;47.830;-3.870;2024-01-27T16:00:54;10.80;99.90
15916;DHT22;8057;47.830;-3.870;2024-01-27T16:05:05;10.70;99.90
15916;DHT22;8057;47.830;-3.870;2024-01-27T16:09:14;10.70;99.90
15916;DHT22;8057;47.830;-3.870;2024-01-27T16:13:24;10.70;99.90
15916;DHT22;8057;47.830;-3.870;2024-01-27T16:17:33;10.70;99.90
15916;DHT22;8057;47.830;-3.870;2024-01-27T16:21:44;10.70;99.90
15916;DHT22;8057;47.830;-3.870;2024-01-27T16:25:53;10.70;99.90
15916;DHT22;8057;47.830;-3.870;2024-01-27T16:30:03;10.80;99.90
15916;DHT22;8057;47.830;-3.870;2024-01-27T16:34:13;10.80;99.90
15916;DHT22;8057;47.830;-3.870;2024-01-27T16:38:24;10.80;99.90
15916;DHT22;8057;47.830;-3.870;2024-01-27T16:42:33;10.70;99.90
15916;DHT22;8057;47.830;-3.870;2024-01-27T16:46:45;10.70;99.90
15916;DHT22;8057;47.830;-3.870;2024-01-27T16:50:54;10.70;99.90
15916;DHT22;8057;47.830;-3.870;2024-01-27T16:55:06;10.70;99.90
15916;DHT22;8057;47.830;-3.870;2024-01-27T16:59:15;10.60;99.90
15916;DHT22;8057;47.830;-3.870;2024-01-27T17:03:25;10.60;99.90
15916;DHT22;8057;47.830;-3.870;2024-01-27T17:07:34;10.60;99.90
15916;DHT22;8057;47.830;-3.870;2024-01-27T17:11:45;10.60;99.90
15916;DHT22;8057;47.830;-3.870;2024-01-27T17:15:54;10.50;99.90
15916;DHT22;8057;47.830;-3.870;2024-01-27T17:20:04;10.60;99.90
15916;DHT22;8057;47.830;-3.870;2024-01-27T17:24:15;10.60;99.90
15916;DHT22;8057;47.830;-3.870;2024-01-27T17:28:26;10.60;99.90
15916;DHT22;8057;47.830;-3.870;2024-01-27T17:32:36;10.60;99.90
15916;DHT22;8057;47.830;-3.870;2024-01-27T17:36:50;10.60;99.90
15916;DHT22;8057;47.830;-3.870;2024-01-27T17:41:00;10.50;99.90
15916;DHT22;8057;47.830;-3.870;2024-01-27T17:45:20;10.50;99.90
15916;DHT22;8057;47.830;-3.870;2024-01-27T17:49:29;10.60;99.90
15916;DHT22;8057;47.830;-3.870;2024-01-27T17:53:39;10.50;99.90
15916;DHT22;8057;47.830;-3.870;2024-01-27T17:57:48;10.50;99.90
15916;DHT22;8057;47.830;-3.870;2024-01-27T18:01:59;10.60;99.90
15916;DHT22;8057;47.830;-3.870;2024-01-27T18:06:08;10.50;99.90
15916;DHT22;8057;47.830;-3.870;2024-01-27T18:10:17;10.60;99.90
15916;DHT22;8057;47.830;-3.870;2024-01-27T18:14:26;10.60;99.90
15916;DHT22;8057;47.830;-3.870;2024-01-27T18:18:37;10.70;99.90
15916;DHT22;8057;47.830;-3.870;2024-01-27T18:22:46;10.60;99.90
15916;DHT22;8057;47.830;-3.870;2024-01-27T18:26:56;10.70;99.90
15916;DHT22;8057;47.830;-3.870;2024-01-27T18:31:06;10.70;99.90
15916;DHT22;8057;47.830;-3.870;2024-01-27T18:35:17;10.80;99.90
15916;DHT22;8057;47.830;-3.870;2024-01-27T18:39:26;10.80;99.90
15916;DHT22;8057;47.830;-3.870;2024-01-27T18:43:36;10.80;99.90
15916;DHT22;8057;47.830;-3.870;2024-01-27T18:47:45;10.70;99.90
15916;DHT22;8057;47.830;-3.870;2024-01-27T18:51:56;10.80;99.90
15916;DHT22;8057;47.830;-3.870;2024-01-27T18:56:07;10.80;99.90
15916;DHT22;8057;47.830;-3.870;2024-01-27T19:00:17;10.80;99.90
15916;DHT22;8057;47.830;-3.870;2024-01-27T19:04:27;10.80;99.90
15916;DHT22;8057;47.830;-3.870;2024-01-27T19:08:38;10.80;99.90
15916;DHT22;8057;47.830;-3.870;2024-01-27T19:12:47;10.80;99.90
15916;DHT22;8057;47.830;-3.870;2024-01-27T19:16:57;10.70;99.90
15916;DHT22;8057;47.830;-3.870;2024-01-27T19:21:09;10.60;99.90
15916;DHT22;8057;47.830;-3.870;2024-01-27T19:25:20;10.60;99.90
15916;DHT22;8057;47.830;-3.870;2024-01-27T19:29:30;10.60;99.90
15916;DHT22;8057;47.830;-3.870;2024-01-27T19:33:39;10.60;99.90
15916;DHT22;8057;47.830;-3.870;2024-01-27T19:37:49;10.60;99.90
15916;DHT22;8057;47.830;-3.870;2024-01-27T19:41:59;10.50;99.90
15916;DHT22;8057;47.830;-3.870;2024-01-27T19:46:09;10.50;99.90
15916;DHT22;8057;47.830;-3.870;2024-01-27T19:50:18;10.40;99.90
15916;DHT22;8057;47.830;-3.870;2024-01-27T19:54:28;10.40;99.90
15916;DHT22;8057;47.830;-3.870;2024-01-27T19:58:38;10.40;99.90
15916;DHT22;8057;47.830;-3.870;2024-01-27T20:02:48;10.30;99.90
15916;DHT22;8057;47.830;-3.870;2024-01-27T20:06:57;10.20;99.90
15916;DHT22;8057;47.830;-3.870;2024-01-27T20:11:08;10.20;99.90
15916;DHT22;8057;47.830;-3.870;2024-01-27T20:15:20;10.10;99.90
15916;DHT22;8057;47.830;-3.870;2024-01-27T20:19:29;10.10;99.90
15916;DHT22;8057;47.830;-3.870;2024-01-27T20:23:39;10.00;99.90
15916;DHT22;8057;47.830;-3.870;2024-01-27T20:27:48;10.10;99.90
15916;DHT22;8057;47.830;-3.870;2024-01-27T20:31:59;10.00;99.90
15916;DHT22;8057;47.830;-3.870;2024-01-27T20:36:12;10.00;99.90
15916;DHT22;8057;47.830;-3.870;2024-01-27T20:40:22;10.00;99.90
15916;DHT22;8057;47.830;-3.870;2024-01-27T20:44:32;10.00;99.90
15916;DHT22;8057;47.830;-3.870;2024-01-27T20:48:43;9.90;99.90
15916;DHT22;8057;47.830;-3.870;2024-01-27T20:52:52;9.90;99.90
15916;DHT22;8057;47.830;-3.870;2024-01-27T20:57:03;9.90;99.90
15916;DHT22;8057;47.830;-3.870;2024-01-27T21:01:12;9.80;99.90
15916;DHT22;8057;47.830;-3.870;2024-01-27T21:05:25;9.80;99.90
15916;DHT22;8057;47.830;-3.870;2024-01-27T21:09:35;9.70;99.90
15916;DHT22;8057;47.830;-3.870;2024-01-27T21:13:47;9.70;99.90
15916;DHT22;8057;47.830;-3.870;2024-01-27T21:17:56;9.70;99.90
15916;DHT22;8057;47.830;-3.870;2024-01-27T21:22:07;9.70;99.90
15916;DHT22;8057;47.830;-3.870;2024-01-27T21:26:16;9.60;99.90
15916;DHT22;8057;47.830;-3.870;2024-01-27T21:30:26;9.60;99.90
15916;DHT22;8057;47.830;-3.870;2024-01-27T21:34:37;9.60;99.90
15916;DHT22;8057;47.830;-3.870;2024-01-27T21:43:13;9.50;99.90
